Apache, Oklahoma
Current Conditions -  °F | °C
As of 9:58 AM on Monday 26 Jan 2015 (Local Time) from KFSI Reporting Station
Clear Clear  
Wind Chill: 47°   Ceiling: Unl
Heat Index: 49°   Visibility: 10mi
Dew Point: 34°   Wind: 6mph
Humidity: 55%   Direction: 220°SW
Pressure: 30.15"   Gusts: NA
Location:  34.89°N, 98.37°W
Report Text: KFSI 261558Z AUTO 22005KT 10SM CLR 10/01 A3015 RMK AO2 SLP210 T00970011
Loading
Personal Weather Stations






























Interactive Weather Map New forecast layout! Learn more

10-Day Weather Forecast

Advertisements
Track Severe Weather on mobile